PDT or ALG

LearLove

Well-known member
Joined
Nov 27, 2001
Posts
4,451
Total Time
12000+
Approximate Time: Sat, 2 Feb 2002 02:49:03 UTC


1.
KBTV 020154Z 27016G23KT 3SM -SN BKN038 OVC049 01/M05 A2966 RMK AO2
PK WND 27033/0109 SNB03 PRESRR SLP048 P0000 T00061050=


2.
KBUF 020154Z 27017G24KT 10SM BKN035 M03/M08 A3012 RMK AO2 PK WND
26029/0101 SLP207 T10331083=

3.
KSYR 020154Z 28020G28KT 5SM -SN SCT023 BKN034 OVC043 M02/M05 A2998
RMK AO2 PK WND 28038/0102 SLP153 P0000 T10171050=


BUF and BTV are ALG overnites. SYR is a base.


1.
KTPA 020153Z 33004KT 10SM FEW060 21/20 A3017 RMK AO2 SLP217
T02110200=

2.
KEYW 020153Z 01004KT 10SM FEW020 22/21 A3014 RMK AO2 SLP206
T02220206=


TPA is a PDT base and EYW is an overnite.

Now don't get me wrong I like ALG and am happy to have a job, but for you guys out there with a choice......., also it's a little amusing.

KSYR 020154Z 28020G28KT - gusts to 28kts my a$$, more like 40-45 kts. I think my apartment building is going to fall over. Seriously I just saw a full dumpster get blown across the Outback Steak House restaurant parking lot and it didn't even have all four wheels on it. My girlfriend weighs 112 (or so she tells me) and I though she wasn't going to make it from the car to the movie theater it's so windy here.


MORE:

KSYR 012330Z 020024 26030G40KT P6SM OVC050
TEMPO 0003 -SHRASN
FM0300 29020G30KT 2SM -SHSN OVC025
TEMPO 0306 1SM -SHSN OVC012
FM0600 30016G27KT P6SM -SHSN BKN030 PROB30 0612 5SM -SHSN
OVC025
FM1200 32012KT P6SM BKN035
TEMPO 1824 SCT035=

KTPA 012330Z 020024 30008KT P6SM FEW070
BECMG 0405 34006KT
FM1100 36006KT P6SM SCT025 BKN050 OVC200
TEMPO 1115 BKN025
FM1500 01009KT P6SM SCT030 BKN050 OVC200
TEMPO 1518 BKN030
FM2100 35008KT P6SM SCT030 BKN050 BKN250=

Fly Safe and stay warm
 
Last edited:

CL600Pilot

Well-known member
Joined
Dec 11, 2001
Posts
262
Total Time
Much
I was BGM based for a year and a half - I feel your pain!! Wait until May when you come back from a trip and there's still snow on the ground in SYR!!!!!
 
Top